createdAt,value
2022-11-21T00:01:01.893Z,0.77
2022-11-21T00:11:04.972Z,1.90
2022-11-21T00:21:11.309Z,1.57
2022-11-21T00:31:20.806Z,1.03
2022-11-21T00:41:25.203Z,0.70
2022-11-21T00:51:28.209Z,1.33
2022-11-21T01:01:32.582Z,1.43
2022-11-21T01:11:36.471Z,1.07
2022-11-21T01:21:40.906Z,0.70
2022-11-21T01:31:43.982Z,1.27
2022-11-21T01:41:48.354Z,0.70
2022-11-21T01:51:55.456Z,1.83
2022-11-21T02:02:02.422Z,2.30
2022-11-21T02:12:11.128Z,1.70
2022-11-21T02:22:28.630Z,1.67
2022-11-21T02:32:37.115Z,0.83
2022-11-21T02:42:50.102Z,1.57
2022-11-21T02:52:57.071Z,2.57
2022-11-21T03:03:00.136Z,1.20
2022-11-21T03:13:04.886Z,2.23
2022-11-21T03:23:07.846Z,2.30
2022-11-21T03:33:12.194Z,1.53
2022-11-21T03:43:15.221Z,2.43
2022-11-21T03:53:19.556Z,0.63
2022-11-21T04:03:22.581Z,1.33
2022-11-21T04:13:27.072Z,1.60
2022-11-21T04:23:30.287Z,3.77
2022-11-21T04:33:34.704Z,2.33
2022-11-21T04:43:37.749Z,5.87
2022-11-21T04:53:43.341Z,3.67
2022-11-21T05:03:46.504Z,2.27
2022-11-21T05:13:53.504Z,7.17
2022-11-21T05:23:56.576Z,2.63
2022-11-21T05:34:00.955Z,2.53
2022-11-21T05:44:03.929Z,2.13
2022-11-21T05:54:08.445Z,1.83
2022-11-21T06:04:12.189Z,4.00
2022-11-21T06:14:16.584Z,2.50
2022-11-21T06:24:22.309Z,2.23
2022-11-21T06:34:28.889Z,3.87
2022-11-21T06:44:32.158Z,6.23
2022-11-21T06:54:36.506Z,2.23
2022-11-21T07:04:39.803Z,3.17
2022-11-21T07:14:44.162Z,2.53
2022-11-21T07:24:47.152Z,3.43
2022-11-21T07:34:51.522Z,2.67
2022-11-21T07:44:54.523Z,4.37
2022-11-21T07:54:59.040Z,2.20
2022-11-21T08:05:02.062Z,2.00
2022-11-21T08:15:08.603Z,1.33
2022-11-21T08:25:12.319Z,1.30
2022-11-21T08:35:16.886Z,2.00
2022-11-21T08:45:19.852Z,4.20
2022-11-21T08:55:24.227Z,1.63
2022-11-21T09:05:27.242Z,2.23
2022-11-21T09:15:49.217Z,1.53
2022-11-21T09:25:52.335Z,3.63
2022-11-21T09:35:59.365Z,1.57
2022-11-21T09:46:10.358Z,2.23
2022-11-21T09:56:19.891Z,3.07
2022-11-21T10:06:26.238Z,1.53
2022-11-21T10:16:43.228Z,2.30
2022-11-21T10:26:52.878Z,2.00
2022-11-21T10:37:01.395Z,2.73
2022-11-21T10:47:15.522Z,1.97
2022-11-21T10:57:21.336Z,1.03
2022-11-21T11:07:26.952Z,1.20
2022-11-21T11:17:33.428Z,1.80
2022-11-21T11:27:38.905Z,1.87
2022-11-21T11:37:44.563Z,2.70
2022-11-21T11:47:54.757Z,3.10
2022-11-21T11:58:02.478Z,2.33
2022-11-21T12:18:49.004Z,1.87
2022-11-21T12:29:03.554Z,1.63
2022-11-21T12:39:54.327Z,2.27
2022-11-21T12:50:21.927Z,2.90
2022-11-21T13:00:33.430Z,1.97
2022-11-21T13:10:37.665Z,2.20
2022-11-21T13:20:48.330Z,1.30
2022-11-21T13:30:52.400Z,3.77
2022-11-21T13:41:14.327Z,1.77
2022-11-21T13:51:35.789Z,1.57
2022-11-21T14:02:29.499Z,1.53
2022-11-21T14:12:42.830Z,2.70
2022-11-21T14:22:57.337Z,3.60
2022-11-21T14:33:22.536Z,2.50
2022-11-21T14:43:31.332Z,2.60
2022-11-21T14:53:35.857Z,2.90
2022-11-21T15:03:39.123Z,3.30
2022-11-21T15:14:12.631Z,1.57
2022-11-21T15:24:30.361Z,1.97
2022-11-21T15:34:36.402Z,3.40
2022-11-21T15:44:59.235Z,1.77
2022-11-21T15:55:03.714Z,2.30
2022-11-21T16:05:07.255Z,2.43
2022-11-21T16:15:11.924Z,4.40
2022-11-21T16:25:14.976Z,4.70
2022-11-21T16:35:19.438Z,2.50
2022-11-21T16:45:22.481Z,4.87
2022-11-21T16:55:26.885Z,4.33
2022-11-21T17:05:29.940Z,4.37
2022-11-21T17:15:34.395Z,3.23
2022-11-21T17:25:37.461Z,3.43
2022-11-21T17:35:41.850Z,3.80
2022-11-21T17:45:44.902Z,4.43
2022-11-21T17:55:50.554Z,3.53
2022-11-21T18:06:02.099Z,2.37
2022-11-21T18:16:07.982Z,3.33
2022-11-21T18:26:13.999Z,3.33
2022-11-21T18:36:18.890Z,3.73
2022-11-21T18:46:23.216Z,4.53
2022-11-21T18:56:27.995Z,6.23
2022-11-21T19:06:31.007Z,4.10
2022-11-21T19:16:35.498Z,4.20
2022-11-21T19:26:38.595Z,3.57
2022-11-21T19:36:43.066Z,8.80
2022-11-21T19:46:46.126Z,14.33
2022-11-21T19:56:50.569Z,4.63
2022-11-21T20:06:53.775Z,4.40
2022-11-21T20:16:58.226Z,3.57
2022-11-21T20:27:01.203Z,4.70
2022-11-21T20:37:05.660Z,12.10
2022-11-21T20:47:09.441Z,3.60
2022-11-21T20:57:15.461Z,3.63
2022-11-21T21:07:18.748Z,4.27
2022-11-21T21:17:23.162Z,5.83
2022-11-21T21:27:26.185Z,3.90
2022-11-21T21:37:30.909Z,4.60
2022-11-21T21:47:33.948Z,5.20
2022-11-21T21:57:43.567Z,5.53
2022-11-21T22:07:49.261Z,6.20
2022-11-21T22:17:54.130Z,6.40
2022-11-21T22:27:57.555Z,6.80
2022-11-21T22:38:02.327Z,7.70
2022-11-21T22:48:06.828Z,7.80
2022-11-21T22:58:11.280Z,8.60
2022-11-21T23:08:14.304Z,8.67
2022-11-21T23:18:18.754Z,7.80
2022-11-21T23:28:22.135Z,8.47
2022-11-21T23:38:26.599Z,9.00
2022-11-21T23:48:29.659Z,9.53
2022-11-21T23:58:34.082Z,9.60
